Terminal Aerodrome Forecast
Issued by NWS St Louis, MO

Home | Current Version | Previous Version | Text Only | Print | Product List | Glossary On
Versions: 1 2 3 4 5 6 7 8 9 10 11 12 13 14 15 16 17 18
348
FTUS43 KLSX 122123 AAA
TAFCOU
TAF AMD
KCOU 122123Z 1221/1318 28012KT P6SM FEW250
     FM130000 28006KT P6SM FEW250
     FM130500 22006KT P6SM SKC
     FM130900 20006KT P6SM FEW070 WS020/24035KT
     FM131500 23011G20KT P6SM FEW250=

USA.gov is the U.S. government's official web portal to all federal, state and local government web resources and services.